createdAt,value
2023-04-11T00:01:37.682Z,99694.97
2023-04-11T00:04:11.937Z,99688.16
2023-04-11T00:06:39.186Z,99689.03
2023-04-11T00:09:07.655Z,99682.94
2023-04-11T00:11:34.668Z,99691.75
2023-04-11T00:14:05.855Z,99676.78
2023-04-11T00:16:36.103Z,99677.69
2023-04-11T00:19:07.686Z,99678.63
2023-04-11T00:21:35.944Z,99678.66
2023-04-11T00:24:03.138Z,99669.97
2023-04-11T00:26:30.634Z,99675.13
2023-04-11T00:28:57.977Z,99664.84
2023-04-11T00:31:25.815Z,99665.16
2023-04-11T00:33:53.509Z,99658.88
2023-04-11T00:36:21.165Z,99653.59
2023-04-11T00:38:50.539Z,99648.56
2023-04-11T00:41:19.895Z,99645.16
2023-04-11T00:43:47.613Z,99646.09
2023-04-11T00:46:15.241Z,99637.38
2023-04-11T00:48:43.301Z,99638.22
2023-04-11T00:51:10.986Z,99633.94
2023-04-11T00:53:39.303Z,99620.88
2023-04-11T00:56:08.922Z,99620.16
2023-04-11T00:58:38.344Z,99624.53
2023-04-11T01:03:48.674Z,99614.97
2023-04-11T01:06:21.040Z,99604.38
2023-04-11T01:08:50.481Z,99601.91
2023-04-11T01:11:20.421Z,99586.38
2023-04-11T01:13:54.343Z,99594.25
2023-04-11T01:16:22.054Z,99596.03
2023-04-11T01:18:50.153Z,99598.56
2023-04-11T01:21:19.934Z,99591.63
2023-04-11T01:23:49.169Z,99586.34
2023-04-11T01:26:16.628Z,99594.66
2023-04-11T01:28:43.990Z,99586.63
2023-04-11T01:31:12.306Z,99583.91
2023-04-11T01:33:41.590Z,99583.25
2023-04-11T01:36:09.466Z,99577.41
2023-04-11T01:38:36.736Z,99565.97
2023-04-11T01:41:08.501Z,99574.03
2023-04-11T01:43:36.093Z,99568.84
2023-04-11T01:46:03.792Z,99561.97
2023-04-11T01:48:34.663Z,99553.34
2023-04-11T01:51:04.296Z,99559.41
2023-04-11T01:53:33.993Z,99554.72
2023-04-11T01:56:01.364Z,99558.72
2023-04-11T01:58:28.820Z,99554.09
2023-04-11T02:00:56.324Z,99551.31
2023-04-11T02:03:23.669Z,99547.13
2023-04-11T02:05:51.192Z,99542.13
2023-04-11T02:08:18.769Z,99537.91
2023-04-11T02:10:47.139Z,99540.66
2023-04-11T02:13:14.784Z,99526.72
2023-04-11T02:15:43.228Z,99521.25
2023-04-11T02:18:16.402Z,99523.66
2023-04-11T02:20:43.726Z,99518.59
2023-04-11T02:23:11.412Z,99509.81
2023-04-11T02:25:39.271Z,99502.03
2023-04-11T02:28:08.081Z,99500.41
2023-04-11T02:30:35.583Z,99495.34
2023-04-11T02:33:04.677Z,99491.88
2023-04-11T02:35:32.002Z,99492.59
2023-04-11T02:37:59.734Z,99485.63
2023-04-11T02:40:26.774Z,99478.78
2023-04-11T02:42:55.380Z,99480.38
2023-04-11T02:45:22.991Z,99481.31
2023-04-11T02:47:50.396Z,99470.59
2023-04-11T02:50:17.795Z,99468.88
2023-04-11T02:52:49.637Z,99463.69
2023-04-11T02:55:19.654Z,99457.66
2023-04-11T02:57:46.777Z,99463.81
2023-04-11T03:00:14.317Z,99462.75
2023-04-11T03:02:41.963Z,99463.50
2023-04-11T03:05:10.034Z,99455.47
2023-04-11T03:07:38.712Z,99446.00
2023-04-11T03:10:06.621Z,99447.84
2023-04-11T03:12:34.031Z,99450.50
2023-04-11T03:15:02.667Z,99450.66
2023-04-11T03:17:31.035Z,99446.19
2023-04-11T03:19:58.475Z,99440.81
2023-04-11T03:22:26.255Z,99445.22
2023-04-11T03:24:54.445Z,99439.31
2023-04-11T03:27:23.897Z,99439.19
2023-04-11T03:29:53.007Z,99445.38
2023-04-11T03:32:21.517Z,99435.75
2023-04-11T03:34:50.839Z,99426.81
2023-04-11T03:37:18.939Z,99426.84
2023-04-11T03:39:47.449Z,99418.16
2023-04-11T03:42:14.863Z,99411.19
2023-04-11T03:44:42.457Z,99407.69
2023-04-11T03:47:09.829Z,99404.84
2023-04-11T03:49:37.347Z,99404.94
2023-04-11T03:52:07.716Z,99397.78
2023-04-11T03:54:37.904Z,99399.69
2023-04-11T03:57:05.258Z,99395.97
2023-04-11T03:59:33.692Z,99404.69
2023-04-11T04:02:01.161Z,99391.47
2023-04-11T04:04:29.345Z,99394.13
2023-04-11T04:06:57.182Z,99386.28
2023-04-11T04:09:25.664Z,99374.91
2023-04-11T04:11:53.309Z,99373.16
2023-04-11T04:14:21.526Z,99361.91
2023-04-11T04:16:49.491Z,99360.97
2023-04-11T04:19:16.982Z,99364.53
2023-04-11T04:21:46.160Z,99350.53
2023-04-11T04:24:19.043Z,99348.13
2023-04-11T04:26:50.326Z,99346.31
2023-04-11T04:29:18.652Z,99344.56
2023-04-11T04:31:50.943Z,99347.06
2023-04-11T04:34:22.182Z,99337.50
2023-04-11T04:36:49.757Z,99345.38
2023-04-11T04:39:19.508Z,99347.97
2023-04-11T04:41:49.946Z,99339.94
2023-04-11T04:44:22.774Z,99340.66
2023-04-11T04:46:59.380Z,99334.56
2023-04-11T04:49:26.872Z,99325.84
2023-04-11T04:51:54.387Z,99325.81
2023-04-11T04:54:21.897Z,99329.47
2023-04-11T04:56:55.868Z,99334.50
2023-04-11T04:59:23.391Z,99334.34
2023-04-11T05:01:53.984Z,99326.31
2023-04-11T05:04:21.665Z,99330.00
2023-04-11T05:06:49.141Z,99321.09
2023-04-11T05:09:18.272Z,99320.09
2023-04-11T05:11:45.949Z,99319.09
2023-04-11T05:14:13.389Z,99328.66
2023-04-11T05:16:42.580Z,99338.97
2023-04-11T05:19:10.102Z,99344.06
2023-04-11T05:21:43.276Z,99344.94
2023-04-11T05:24:10.917Z,99337.81
2023-04-11T05:26:38.316Z,99332.41
2023-04-11T05:29:07.080Z,99327.75
2023-04-11T05:31:34.213Z,99323.22
2023-04-11T05:34:02.788Z,99319.66
2023-04-11T05:36:30.402Z,99303.13
2023-04-11T05:38:57.584Z,99307.34
2023-04-11T05:41:25.269Z,99294.88
2023-04-11T05:43:52.595Z,99290.19
2023-04-11T05:46:19.920Z,99291.84
2023-04-11T05:48:47.507Z,99288.13
2023-04-11T05:51:14.899Z,99285.41
2023-04-11T05:53:42.365Z,99296.50
2023-04-11T05:56:10.054Z,99292.66
2023-04-11T05:58:38.065Z,99294.09
2023-04-11T06:01:07.721Z,99293.03
2023-04-11T06:03:35.613Z,99294.66
2023-04-11T06:06:03.189Z,99295.47
2023-04-11T06:08:30.669Z,99288.44
2023-04-11T06:11:00.334Z,99267.81
2023-04-11T06:13:33.790Z,99262.50
2023-04-11T06:16:07.805Z,99259.63
2023-04-11T06:18:35.446Z,99259.63
2023-04-11T06:21:05.008Z,99254.06
2023-04-11T06:23:32.375Z,99234.97
2023-04-11T06:25:59.799Z,99226.94
2023-04-11T06:28:27.492Z,99223.22
2023-04-11T06:30:54.750Z,99214.53
2023-04-11T06:33:24.196Z,99226.81
2023-04-11T06:35:51.845Z,99226.47
2023-04-11T06:38:25.241Z,99216.16
2023-04-11T06:40:55.037Z,99213.69
2023-04-11T06:43:22.704Z,99218.16
2023-04-11T06:45:50.234Z,99212.91
2023-04-11T06:48:18.478Z,99208.34
2023-04-11T06:50:46.312Z,99210.00
2023-04-11T06:53:13.541Z,99203.47
2023-04-11T06:55:41.072Z,99204.94
2023-04-11T06:58:08.467Z,99187.41
2023-04-11T07:00:36.472Z,99183.38
2023-04-11T07:03:08.223Z,99171.63
2023-04-11T07:05:38.291Z,99167.59
2023-04-11T07:08:07.590Z,99170.06
2023-04-11T07:10:34.996Z,99171.97
2023-04-11T07:13:02.397Z,99174.69
2023-04-11T07:15:29.577Z,99163.94
2023-04-11T07:17:56.805Z,99164.22
2023-04-11T07:20:31.388Z,99170.28
2023-04-11T07:22:58.520Z,99168.91
2023-04-11T07:25:33.973Z,99152.03
2023-04-11T07:28:01.524Z,99160.91
2023-04-11T07:30:30.386Z,99158.38
2023-04-11T07:32:58.023Z,99159.47
2023-04-11T07:35:25.596Z,99151.84
2023-04-11T07:37:54.085Z,99151.97
2023-04-11T07:40:21.410Z,99139.56
2023-04-11T07:42:48.827Z,99144.38
2023-04-11T07:45:16.369Z,99132.75
2023-04-11T07:47:43.743Z,99131.94
2023-04-11T07:50:11.676Z,99121.16
2023-04-11T07:52:39.218Z,99115.59
2023-04-11T07:55:06.979Z,99110.16
2023-04-11T07:57:34.148Z,99108.44
2023-04-11T08:00:01.564Z,99091.66
2023-04-11T08:02:28.922Z,99089.56
2023-04-11T08:04:57.472Z,99092.44
2023-04-11T08:07:24.937Z,99099.13
2023-04-11T08:09:52.443Z,99098.53
2023-04-11T08:12:19.916Z,99088.34
2023-04-11T08:14:47.390Z,99091.66
2023-04-11T08:17:26.983Z,99079.94
2023-04-11T08:20:02.068Z,99091.81
2023-04-11T08:22:31.033Z,99083.25
2023-04-11T08:24:58.433Z,99086.19
2023-04-11T08:27:26.278Z,99076.56
2023-04-11T08:29:53.514Z,99072.47
2023-04-11T08:32:21.153Z,99079.94
2023-04-11T08:35:00.802Z,99085.78
2023-04-11T08:37:32.032Z,99084.75
2023-04-11T08:39:59.428Z,99083.34
2023-04-11T08:42:33.300Z,99085.47
2023-04-11T08:45:04.388Z,99075.94
2023-04-11T08:47:46.435Z,99080.06
2023-04-11T08:50:14.788Z,99075.59
2023-04-11T08:52:45.188Z,99066.31
2023-04-11T08:55:13.158Z,99062.75
2023-04-11T08:57:40.585Z,99066.31
2023-04-11T09:00:19.486Z,99065.41
2023-04-11T09:03:01.614Z,99065.63
2023-04-11T09:05:30.105Z,99061.16
2023-04-11T09:08:02.556Z,99057.47
2023-04-11T09:10:29.718Z,99057.56
2023-04-11T09:12:59.625Z,99050.31
2023-04-11T09:15:32.171Z,99046.81
2023-04-11T09:18:01.093Z,99038.44
2023-04-11T09:20:32.063Z,99030.13
2023-04-11T09:22:59.362Z,99023.06
2023-04-11T09:25:26.910Z,99008.59
2023-04-11T09:28:11.228Z,99012.59
2023-04-11T09:30:38.687Z,98990.88
2023-04-11T09:33:30.314Z,98997.84
2023-04-11T09:35:58.572Z,98985.25
2023-04-11T09:38:44.508Z,98984.50
2023-04-11T09:41:12.949Z,98974.94
2023-04-11T09:43:56.092Z,98959.69
2023-04-11T09:46:24.230Z,98962.78
2023-04-11T09:48:53.130Z,98962.47
2023-04-11T09:51:35.267Z,98954.41
2023-04-11T09:54:06.271Z,98950.97
2023-04-11T09:56:36.792Z,98954.47
2023-04-11T09:59:05.748Z,98950.28
2023-04-11T10:01:39.672Z,98951.53
2023-04-11T10:04:07.107Z,98950.41
2023-04-11T10:06:48.467Z,98953.16
2023-04-11T10:09:17.266Z,98959.09
2023-04-11T10:11:46.374Z,98965.97
2023-04-11T10:14:38.703Z,98954.88
2023-04-11T10:17:24.298Z,98955.75
2023-04-11T10:19:58.925Z,98954.28
2023-04-11T10:22:41.918Z,98946.69
2023-04-11T10:25:18.944Z,98952.28
2023-04-11T10:27:53.968Z,98949.34
2023-04-11T10:30:41.587Z,98948.69
2023-04-11T10:33:17.822Z,98935.78
2023-04-11T10:36:10.858Z,98931.72
2023-04-11T10:38:48.779Z,98943.81
2023-04-11T10:41:25.844Z,98942.66
2023-04-11T10:44:05.111Z,98950.06
2023-04-11T10:46:49.881Z,98954.16
2023-04-11T10:49:40.775Z,98949.50
2023-04-11T10:52:24.954Z,98948.03
2023-04-11T10:54:54.318Z,98944.91
2023-04-11T10:57:23.262Z,98942.56
2023-04-11T10:59:50.857Z,98937.88
2023-04-11T11:02:20.321Z,98933.56
2023-04-11T11:04:50.226Z,98930.16
2023-04-11T11:07:17.790Z,98924.88
2023-04-11T11:09:52.986Z,98938.91
2023-04-11T11:12:20.660Z,98938.69
2023-04-11T11:14:48.126Z,98906.06
2023-04-11T11:17:17.591Z,98908.25
2023-04-11T11:19:48.119Z,98916.00
2023-04-11T11:22:26.272Z,98917.94
2023-04-11T11:24:53.822Z,98915.22
2023-04-11T11:27:24.336Z,98921.81
2023-04-11T11:29:53.326Z,98919.03
2023-04-11T11:32:30.157Z,98927.38
2023-04-11T11:34:59.155Z,98925.00
2023-04-11T11:37:26.446Z,98931.88
2023-04-11T11:39:53.989Z,98924.78
2023-04-11T11:42:21.476Z,98925.38
2023-04-11T11:44:48.787Z,98932.28
2023-04-11T11:47:18.299Z,98929.53
2023-04-11T11:49:46.661Z,98925.56
2023-04-11T11:52:41.011Z,98946.09
2023-04-11T11:55:29.796Z,98943.75
2023-04-11T11:58:02.578Z,98939.59
2023-04-11T12:00:32.824Z,98924.25
2023-04-11T12:03:01.195Z,98930.09
2023-04-11T12:05:32.373Z,98941.72
2023-04-11T12:08:08.451Z,98934.91
2023-04-11T12:10:42.706Z,98939.56
2023-04-11T12:13:20.835Z,98936.84
2023-04-11T12:15:56.469Z,98941.31
2023-04-11T12:18:26.634Z,98938.25
2023-04-11T12:20:54.936Z,98947.84
2023-04-11T12:23:24.090Z,98953.72
2023-04-11T12:25:51.775Z,98942.09
2023-04-11T12:28:19.446Z,98953.16
2023-04-11T12:30:46.990Z,98960.50
2023-04-11T12:33:15.294Z,98946.88
2023-04-11T12:35:42.799Z,98956.16
2023-04-11T12:38:11.922Z,98946.41
2023-04-11T12:41:13.967Z,98959.59
2023-04-11T12:43:43.808Z,98945.16
2023-04-11T12:46:12.032Z,98949.34
2023-04-11T12:48:39.535Z,98957.44
2023-04-11T12:51:07.038Z,98946.28
2023-04-11T12:53:34.360Z,98963.66
2023-04-11T12:56:02.007Z,98974.13
2023-04-11T12:58:35.787Z,98971.19
2023-04-11T13:01:02.729Z,98968.78
2023-04-11T13:03:32.122Z,98971.34
2023-04-11T13:05:59.364Z,98986.88
2023-04-11T13:08:27.632Z,98981.66
2023-04-11T13:10:56.033Z,98993.97
2023-04-11T13:13:25.084Z,98985.03
2023-04-11T13:15:52.432Z,98980.81
2023-04-11T13:18:19.819Z,98972.25
2023-04-11T13:20:47.231Z,98973.88
2023-04-11T13:23:16.643Z,98966.75
2023-04-11T13:25:45.194Z,98968.16
2023-04-11T13:28:12.878Z,98964.53
2023-04-11T13:30:41.510Z,98964.59
2023-04-11T13:33:09.097Z,98968.38
2023-04-11T13:35:36.682Z,98971.19
2023-04-11T13:38:05.488Z,98975.00
2023-04-11T13:40:34.008Z,98960.19
2023-04-11T13:43:03.769Z,98961.84
2023-04-11T13:46:00.716Z,98972.97
2023-04-11T13:48:28.140Z,98986.19
2023-04-11T13:50:57.895Z,98975.34
2023-04-11T13:53:26.273Z,98982.09
2023-04-11T13:55:53.504Z,98977.78
2023-04-11T13:58:21.374Z,98971.03
2023-04-11T14:00:50.725Z,98976.84
2023-04-11T14:03:18.940Z,98977.63
2023-04-11T14:05:53.818Z,98989.13
2023-04-11T14:08:22.151Z,98983.75
2023-04-11T14:10:49.472Z,98989.13
2023-04-11T14:13:17.071Z,98991.38
2023-04-11T14:15:45.084Z,98990.88
2023-04-11T14:18:13.552Z,99007.50
2023-04-11T14:20:41.217Z,99002.88
2023-04-11T14:23:11.352Z,99002.75
2023-04-11T14:25:39.465Z,99011.50
2023-04-11T14:28:08.397Z,99002.94
2023-04-11T14:30:36.489Z,99011.63
2023-04-11T14:33:04.020Z,99011.03
2023-04-11T14:35:31.868Z,99004.91
2023-04-11T14:37:59.433Z,98994.19
2023-04-11T14:40:32.871Z,98990.91
2023-04-11T14:43:00.548Z,98993.00
2023-04-11T14:45:27.820Z,99005.44
2023-04-11T14:47:56.925Z,98995.00
2023-04-11T14:50:24.772Z,99003.16
2023-04-11T14:52:55.305Z,98995.25
2023-04-11T14:55:23.063Z,98996.00
2023-04-11T14:57:53.799Z,99017.22
2023-04-11T15:00:27.493Z,99018.94
2023-04-11T15:02:56.562Z,99030.81
2023-04-11T15:05:24.588Z,99027.66
2023-04-11T15:07:53.417Z,99033.56
2023-04-11T15:10:23.558Z,99034.44
2023-04-11T15:12:51.923Z,99036.84
2023-04-11T15:15:19.622Z,99033.66
2023-04-11T15:18:11.085Z,99041.38
2023-04-11T15:20:40.611Z,99039.03
2023-04-11T15:23:08.067Z,99040.94
2023-04-11T15:25:36.575Z,99047.81
2023-04-11T15:28:06.258Z,99050.19
2023-04-11T15:30:35.108Z,99041.13
2023-04-11T15:33:03.099Z,99046.88
2023-04-11T15:35:30.703Z,99041.38
2023-04-11T15:38:00.762Z,99046.53
2023-04-11T15:40:28.212Z,99042.16
2023-04-11T15:42:57.491Z,99031.50
2023-04-11T15:45:24.891Z,99030.84
2023-04-11T15:47:52.428Z,99029.06
2023-04-11T15:50:28.980Z,99031.88
2023-04-11T15:52:57.859Z,99039.50
2023-04-11T15:55:25.592Z,99031.03
2023-04-11T15:57:53.075Z,99031.16
2023-04-11T16:00:22.769Z,99026.78
2023-04-11T16:02:50.722Z,99030.53
2023-04-11T16:05:21.241Z,99026.28
2023-04-11T16:07:49.058Z,99031.88
2023-04-11T16:10:16.471Z,99024.31
2023-04-11T16:12:50.255Z,99028.50
2023-04-11T16:15:18.225Z,99028.16
2023-04-11T16:17:46.778Z,99033.84
2023-04-11T16:20:18.944Z,99027.84
2023-04-11T16:22:47.550Z,99019.09
2023-04-11T16:25:21.681Z,99021.88
2023-04-11T16:27:51.656Z,99014.75
2023-04-11T16:30:19.358Z,99014.56
2023-04-11T16:32:48.779Z,99012.44
2023-04-11T16:35:16.026Z,99011.31
2023-04-11T16:37:44.515Z,99018.88
2023-04-11T16:40:12.542Z,99009.56
2023-04-11T16:42:40.361Z,99004.00
2023-04-11T16:45:11.192Z,99005.41
2023-04-11T16:47:39.585Z,99014.03
2023-04-11T16:50:08.430Z,99010.22
2023-04-11T16:52:35.802Z,99011.00
2023-04-11T16:55:03.865Z,99019.03
2023-04-11T16:57:38.994Z,99025.16
2023-04-11T17:00:20.031Z,99031.53
2023-04-11T17:02:47.408Z,99030.50
2023-04-11T17:05:14.898Z,99025.28
2023-04-11T17:07:48.416Z,99018.16
2023-04-11T17:10:16.163Z,99019.25
2023-04-11T17:12:43.414Z,99016.06
2023-04-11T17:15:11.498Z,99020.41
2023-04-11T17:17:45.089Z,99024.31
2023-04-11T17:20:12.546Z,99024.28
2023-04-11T17:22:41.752Z,99027.97
2023-04-11T17:25:10.434Z,99026.03
2023-04-11T17:27:41.194Z,99025.38
2023-04-11T17:30:12.546Z,99021.63
2023-04-11T17:32:41.152Z,99027.47
2023-04-11T17:35:08.739Z,99032.50
2023-04-11T17:37:37.922Z,99037.75
2023-04-11T17:40:12.111Z,99037.91
2023-04-11T17:42:42.005Z,99036.19
2023-04-11T17:45:17.848Z,99042.25
2023-04-11T17:47:52.468Z,99049.47
2023-04-11T17:50:20.490Z,99069.50
2023-04-11T17:52:49.955Z,99057.72
2023-04-11T17:55:19.283Z,99060.53
2023-04-11T17:57:50.550Z,99054.63
2023-04-11T18:00:23.864Z,99066.63
2023-04-11T18:02:54.908Z,99066.00
2023-04-11T18:05:25.190Z,99064.22
2023-04-11T18:07:57.704Z,99078.13
2023-04-11T18:10:31.820Z,99084.50
2023-04-11T18:12:59.564Z,99084.41
2023-04-11T18:15:28.341Z,99073.78
2023-04-11T18:17:56.934Z,99079.06
2023-04-11T18:20:24.245Z,99088.47
2023-04-11T18:22:55.048Z,99104.69
2023-04-11T18:25:24.132Z,99105.94
2023-04-11T18:27:52.181Z,99119.28
2023-04-11T18:30:19.539Z,99124.09
2023-04-11T18:32:49.745Z,99123.31
2023-04-11T18:35:17.617Z,99126.72
2023-04-11T18:37:45.240Z,99129.50
2023-04-11T18:40:14.499Z,99127.94
2023-04-11T18:42:49.250Z,99137.47
2023-04-11T18:45:23.720Z,99135.34
2023-04-11T18:47:51.734Z,99142.47
2023-04-11T18:50:27.613Z,99140.00
2023-04-11T18:52:57.475Z,99141.00
2023-04-11T18:55:29.892Z,99129.66
2023-04-11T18:58:00.089Z,99134.91
2023-04-11T19:00:35.752Z,99138.72
2023-04-11T19:03:03.732Z,99135.28
2023-04-11T19:05:32.373Z,99140.53
2023-04-11T19:08:00.950Z,99140.53
2023-04-11T19:10:28.707Z,99145.03
2023-04-11T19:12:56.408Z,99145.06
2023-04-11T19:15:26.129Z,99138.94
2023-04-11T19:17:55.454Z,99152.81
2023-04-11T19:20:27.399Z,99145.63
2023-04-11T19:22:55.925Z,99153.53
2023-04-11T19:25:24.071Z,99159.47
2023-04-11T19:27:53.468Z,99148.88
2023-04-11T19:30:23.682Z,99144.34
2023-04-11T19:32:52.470Z,99140.75
2023-04-11T19:35:28.415Z,99135.25
2023-04-11T19:38:00.488Z,99137.19
2023-04-11T19:40:31.038Z,99138.69
2023-04-11T19:43:02.552Z,99135.44
2023-04-11T19:45:32.509Z,99124.84
2023-04-11T19:48:03.327Z,99128.47
2023-04-11T19:50:34.958Z,99126.97
2023-04-11T19:53:04.135Z,99127.66
2023-04-11T19:55:32.253Z,99131.22
2023-04-11T19:58:00.698Z,99141.91
2023-04-11T20:00:35.394Z,99142.78
2023-04-11T20:03:10.393Z,99140.81
2023-04-11T20:05:38.946Z,99137.47
2023-04-11T20:08:09.117Z,99136.88
2023-04-11T20:10:45.639Z,99139.34
2023-04-11T20:13:14.275Z,99140.78
2023-04-11T20:15:42.253Z,99138.56
2023-04-11T20:18:11.543Z,99136.41
2023-04-11T20:20:41.280Z,99141.69
2023-04-11T20:23:16.885Z,99140.19
2023-04-11T20:25:45.093Z,99138.38
2023-04-11T20:28:13.135Z,99143.94
2023-04-11T20:30:41.647Z,99127.88
2023-04-11T20:33:09.492Z,99133.25
2023-04-11T20:35:38.590Z,99133.81
2023-04-11T20:38:06.307Z,99145.28
2023-04-11T20:40:34.283Z,99146.28
2023-04-11T20:43:08.755Z,99150.06
2023-04-11T20:45:40.104Z,99150.28
2023-04-11T20:48:09.059Z,99148.00
2023-04-11T20:50:37.938Z,99149.50
2023-04-11T20:53:05.603Z,99159.94
2023-04-11T20:55:33.700Z,99153.88
2023-04-11T20:58:01.600Z,99159.25
2023-04-11T21:00:28.710Z,99157.59
2023-04-11T21:02:56.065Z,99163.75
2023-04-11T21:05:25.888Z,99161.22
2023-04-11T21:07:55.888Z,99168.13
2023-04-11T21:10:30.334Z,99174.06
2023-04-11T21:12:58.913Z,99171.69
2023-04-11T21:15:26.523Z,99170.13
2023-04-11T21:17:54.786Z,99171.13
2023-04-11T21:20:22.807Z,99181.31
2023-04-11T21:22:55.038Z,99185.22
2023-04-11T21:25:24.185Z,99187.84
2023-04-11T21:27:58.879Z,99188.97
2023-04-11T21:30:26.308Z,99205.81
2023-04-11T21:32:53.903Z,99196.75
2023-04-11T21:35:22.422Z,99200.22
2023-04-11T21:37:51.023Z,99202.25
2023-04-11T21:40:20.262Z,99206.97
2023-04-11T21:42:47.724Z,99201.94
2023-04-11T21:45:15.861Z,99205.47
2023-04-11T21:47:44.294Z,99203.19
2023-04-11T21:50:11.828Z,99197.19
2023-04-11T21:52:39.082Z,99206.91
2023-04-11T21:55:09.084Z,99198.31
2023-04-11T21:57:36.573Z,99194.81
2023-04-11T22:00:05.439Z,99194.97
2023-04-11T22:02:32.628Z,99196.81
2023-04-11T22:05:06.296Z,99202.13
2023-04-11T22:07:46.746Z,99211.94
2023-04-11T22:10:14.348Z,99209.44
2023-04-11T22:12:42.249Z,99207.72
2023-04-11T22:15:12.865Z,99208.75
2023-04-11T22:17:50.734Z,99202.84
2023-04-11T22:20:18.853Z,99204.63
2023-04-11T22:22:45.920Z,99215.41
2023-04-11T22:25:15.046Z,99217.16
2023-04-11T22:27:42.437Z,99217.41
2023-04-11T22:30:11.410Z,99211.34
2023-04-11T22:32:39.916Z,99219.19
2023-04-11T22:35:09.604Z,99213.09
2023-04-11T22:37:36.791Z,99215.03
2023-04-11T22:40:06.233Z,99215.28
2023-04-11T22:42:34.207Z,99210.19
2023-04-11T22:45:01.700Z,99216.47
2023-04-11T22:47:29.576Z,99206.81
2023-04-11T22:49:58.113Z,99200.69
2023-04-11T22:52:26.126Z,99202.41
2023-04-11T22:54:55.202Z,99209.44
2023-04-11T22:57:22.617Z,99199.78
2023-04-11T22:59:50.171Z,99201.75
2023-04-11T23:02:17.631Z,99201.97
2023-04-11T23:04:45.405Z,99203.59
2023-04-11T23:07:12.921Z,99212.25
2023-04-11T23:09:40.418Z,99204.34
2023-04-11T23:12:08.589Z,99199.06
2023-04-11T23:14:36.801Z,99194.66
2023-04-11T23:17:04.413Z,99185.06
2023-04-11T23:19:34.430Z,99182.50
2023-04-11T23:22:01.735Z,99174.59
2023-04-11T23:24:29.312Z,99173.84
2023-04-11T23:26:57.388Z,99168.41
2023-04-11T23:29:24.851Z,99170.22
2023-04-11T23:31:52.180Z,99170.13
2023-04-11T23:34:21.274Z,99171.09
2023-04-11T23:36:48.598Z,99168.22
2023-04-11T23:39:16.897Z,99165.59
2023-04-11T23:41:52.819Z,99161.00
2023-04-11T23:44:20.127Z,99168.00
2023-04-11T23:46:47.622Z,99166.44
2023-04-11T23:49:15.091Z,99167.66
2023-04-11T23:51:43.529Z,99159.03
2023-04-11T23:54:11.045Z,99155.53
2023-04-11T23:56:38.483Z,99156.19
2023-04-11T23:59:06.052Z,99162.38
